Overview Statistics Trail Chart Weather Telemetry Raw packets
 

This is the latest recevied weather packets stored in our database for station/object OE6ATD-13. If no packets are shown the sender has not sent any weather packets the latest 10 day(s).

<< 41 42 43 44 45 46 47 >>
Time Temp. Humidity Pressure Rain* Wind** Luminosity Snow
1788070224 20° C 69% 1017.4 hPa 0 mm - 143 W/m² -
1788069620 19.44° C 72% 1017.4 hPa 0 mm - 142 W/m² -
1788069015 18.89° C 73% 1017.4 hPa 0 mm - 121 W/m² -
1788068426 18.89° C 78% 1017.2 hPa 0 mm - 88 W/m² -
1788067822 17.22° C 86% 1017.2 hPa 0 mm - 83 W/m² -
1788067218 16.67° C 92% 1017 hPa 0 mm - 67 W/m² -
1788066622 15.56° C 95% 1017.2 hPa 0 mm - 53 W/m² -
1788066018 15° C 97% 1017 hPa 0 mm - 42 W/m² -
1788065429 13.89° C 97% 1016.9 hPa 0 mm - 30 W/m² -
1788064825 13.33° C 96% 1016.9 hPa 0 mm - 20 W/m² -
1788064221 13.33° C 96% 1017 hPa 0 mm - 7 W/m² -
1788063616 13.33° C 95% 1016.9 hPa 0 mm - 2 W/m² -
1788063030 12.78° C 94% 1016.9 hPa 0 mm - 0 W/m² -
1788062426 12.78° C 94% 1016.8 hPa 0 mm - 0 W/m² -
1788061821 12.78° C 94% 1016.7 hPa 0 mm - 0 W/m² -
1788061221 12.78° C 94% 1016.8 hPa 0 mm - 0 W/m² -
1788060616 13.33° C 94% 1016.9 hPa 0 mm - 0 W/m² -
1788060027 13.33° C 93% 1016.9 hPa 0 mm - 0 W/m² -
1788059423 13.33° C 93% 1016.8 hPa 0 mm - 0 W/m² -
1788058819 13.33° C 93% 1017 hPa 0 mm - 0 W/m² -
1788058230 13.33° C 92% 1017 hPa 0 mm - 0 W/m² -
1788057626 13.89° C 92% 1017 hPa 0 mm - 0 W/m² -
1788057022 13.89° C 92% 1016.9 hPa 0 mm - 0 W/m² -
1788056417 13.89° C 92% 1016.9 hPa 0 mm - 0 W/m² -
1788055828 13.89° C 92% 1017 hPa 0 mm - 0 W/m² -

* Rain latest hour (hover to see other rain measurements)
** Current wind speed in m/s (hover to see current wind gust speed)